Time;durP1;ratioP1;P1;durP2;ratioP2;P2;SDS_P1;SDS_P2;PMS_P1;PMS_P2;Temp;Humidity;BMP_temperature;BMP_pressure;BME280_temperature;BME280_humidity;BME280_pressure;Samples;Min_cycle;Max_cycle;Signal;HPM_P1;HPM_P2
2024/04/10 00:00:13;;;;;;;;;;;12.40;95.80;;;;;;5334504;26;19937;-48
2024/04/10 00:02:39;;;;;;;;;;;12.40;96.20;;;;;;5344251;26;20105;-48
2024/04/10 00:05:04;;;;;;;;;;;12.40;95.80;;;;;;5349077;26;20574;-48
2024/04/10 00:07:30;;;;;;;;;;;12.40;96.00;;;;;;5343939;26;19930;-51
2024/04/10 00:09:55;;;;;;;;;;;12.40;95.90;;;;;;5322337;26;20255;-50
2024/04/10 00:12:21;;;;;;;;;;;12.40;96.00;;;;;;5345878;26;20397;-51
2024/04/10 00:14:46;;;;;;;;;;;12.40;96.00;;;;;;5348779;26;20357;-48
2024/04/10 00:17:12;;;;;;;;;;;12.40;96.00;;;;;;5348293;26;20385;-50
2024/04/10 00:19:37;;;;;;;;;;;12.40;96.00;;;;;;5347833;26;19936;-48
2024/04/10 00:22:03;;;;;;;;;;;12.40;95.90;;;;;;5348526;26;19930;-50
2024/04/10 00:24:29;;;;;;;;;;;12.40;95.90;;;;;;5348318;26;19946;-48
2024/04/10 00:26:54;;;;;;;;;;;12.30;95.90;;;;;;5341442;26;19930;-50
2024/04/10 00:29:20;;;;;;;;;;;12.30;95.80;;;;;;5347983;26;19973;-51
2024/04/10 00:31:47;;;;;;;;;;;12.30;95.80;;;;;;5348458;26;19942;-51
2024/04/10 00:34:12;;;;;;;;;;;12.30;95.60;;;;;;5346663;26;19954;-48
2024/04/10 00:36:38;;;;;;;;;;;12.30;95.70;;;;;;5347798;26;19937;-48
2024/04/10 00:39:03;;;;;;;;;;;12.30;95.80;;;;;;5348400;26;19936;-47
2024/04/10 00:41:29;;;;;;;;;;;12.30;95.80;;;;;;5348264;26;19930;-47
2024/04/10 00:43:54;;;;;;;;;;;12.20;95.80;;;;;;5348334;26;20000;-47
2024/04/10 00:46:23;;;;;;;;;;;12.20;95.90;;;;;;5347401;26;19930;-51
2024/04/10 00:48:49;;;;;;;;;;;12.20;95.80;;;;;;5344441;26;19943;-48
2024/04/10 00:51:19;;;;;;;;;;;12.20;95.80;;;;;;5348112;26;19930;-49
2024/04/10 00:53:45;;;;;;;;;;;12.10;95.90;;;;;;5346989;26;19937;-48
2024/04/10 00:56:11;;;;;;;;;;;12.10;95.90;;;;;;5347743;26;19937;-47
2024/04/10 00:58:37;;;;;;;;;;;12.20;95.90;;;;;;5346569;26;19930;-47
2024/04/10 01:01:03;;;;;;;;;;;12.10;96.10;;;;;;5346367;26;19937;-47
2024/04/10 01:03:29;;;;;;;;;;;12.20;95.60;;;;;;5346902;26;19930;-47
2024/04/10 01:18:45;;;;;;;;;;;12.10;95.60;;;;;;5347178;26;19933;-47
2024/04/10 01:21:11;;;;;;;;;;;12.10;95.70;;;;;;5339120;26;19945;-47
2024/04/10 01:23:36;;;;;;;;;;;12.00;95.70;;;;;;5338969;26;19930;-48
2024/04/10 01:26:02;;;;;;;;;;;12.10;95.70;;;;;;5347504;26;20003;-47
2024/04/10 01:30:16;;;;;;;;;;;12.00;95.60;;;;;;5540296;25;19934;-47
2024/04/10 01:32:42;;;;;;;;;;;12.00;95.70;;;;;;5523614;25;19928;-46
2024/04/10 01:35:07;;;;;;;;;;;12.00;95.70;;;;;;5489888;25;19928;-47
2024/04/10 01:37:33;;;;;;;;;;;12.00;95.60;;;;;;5524441;25;19935;-46
2024/04/10 01:39:58;;;;;;;;;;;12.00;95.50;;;;;;5541624;25;19934;-46
2024/04/10 01:42:24;;;;;;;;;;;12.00;95.50;;;;;;5527227;25;19928;-46
2024/04/10 01:44:49;;;;;;;;;;;12.00;95.50;;;;;;5508851;25;19927;-48
2024/04/10 01:47:15;;;;;;;;;;;12.00;95.40;;;;;;5508502;25;20427;-52
2024/04/10 01:49:40;;;;;;;;;;;12.00;95.40;;;;;;5508760;25;19928;-47
2024/04/10 01:52:06;;;;;;;;;;;12.00;95.20;;;;;;5505602;25;19934;-51
2024/04/10 01:54:31;;;;;;;;;;;12.00;95.30;;;;;;5498786;25;19935;-49
2024/04/10 01:56:57;;;;;;;;;;;11.90;95.20;;;;;;5509243;25;19939;-51
2024/04/10 01:59:22;;;;;;;;;;;12.00;95.30;;;;;;5516735;25;19928;-49
2024/04/10 02:01:49;;;;;;;;;;;11.90;95.20;;;;;;5542379;25;19927;-50
2024/04/10 02:04:14;;;;;;;;;;;11.90;95.20;;;;;;5532378;25;19939;-48
2024/04/10 02:06:40;;;;;;;;;;;11.90;95.20;;;;;;5508669;25;20247;-50
2024/04/10 02:09:06;;;;;;;;;;;11.90;95.30;;;;;;5508658;25;20268;-51
2024/04/10 02:11:37;;;;;;;;;;;11.90;95.30;;;;;;5513283;25;20374;-49
2024/04/10 02:14:02;;;;;;;;;;;11.90;95.30;;;;;;5512827;25;19939;-49
2024/04/10 02:16:28;;;;;;;;;;;11.80;95.40;;;;;;5517586;25;19927;-49
2024/04/10 02:18:54;;;;;;;;;;;11.90;95.40;;;;;;5513851;25;19928;-51
2024/04/10 02:21:21;;;;;;;;;;;11.90;95.40;;;;;;5519550;25;20375;-48
2024/04/10 02:23:47;;;;;;;;;;;11.80;95.30;;;;;;5515002;25;19928;-51
2024/04/10 02:26:13;;;;;;;;;;;11.90;95.40;;;;;;5520739;25;19927;-49
2024/04/10 02:28:39;;;;;;;;;;;11.80;95.40;;;;;;5514696;25;19932;-51
2024/04/10 02:31:05;;;;;;;;;;;11.80;95.30;;;;;;5519597;25;19934;-49
2024/04/10 02:33:35;;;;;;;;;;;11.90;95.40;;;;;;5497208;25;19932;-50
2024/04/10 02:36:01;;;;;;;;;;;11.80;95.30;;;;;;5488883;26;19959;-49
2024/04/10 02:38:27;;;;;;;;;;;11.80;95.20;;;;;;5508372;26;20455;-50
2024/04/10 02:40:53;;;;;;;;;;;11.80;95.10;;;;;;5505114;26;19940;-49
2024/04/10 02:43:19;;;;;;;;;;;11.80;95.10;;;;;;5500346;26;20420;-51
2024/04/10 02:45:53;;;;;;;;;;;11.80;95.20;;;;;;5497237;26;19936;-52
2024/04/10 02:48:19;;;;;;;;;;;11.80;95.30;;;;;;5509098;26;20394;-49
2024/04/10 02:50:45;;;;;;;;;;;11.80;95.20;;;;;;5510089;26;19996;-48
2024/04/10 02:53:10;;;;;;;;;;;11.80;95.20;;;;;;5508999;26;19931;-50
2024/04/10 02:55:36;;;;;;;;;;;11.80;95.20;;;;;;5512978;26;20430;-49
2024/04/10 02:58:01;;;;;;;;;;;11.70;95.20;;;;;;5511080;26;20004;-51
2024/04/10 03:00:27;;;;;;;;;;;11.70;95.20;;;;;;5488104;26;19953;-48
2024/04/10 03:02:52;;;;;;;;;;;11.70;95.20;;;;;;5499954;26;19936;-50
2024/04/10 03:05:18;;;;;;;;;;;11.70;95.20;;;;;;5509168;26;20018;-48
2024/04/10 03:07:44;;;;;;;;;;;11.70;95.30;;;;;;5510607;26;19928;-49
2024/04/10 03:10:10;;;;;;;;;;;11.70;95.20;;;;;;5506382;26;19927;-48
2024/04/10 03:12:35;;;;;;;;;;;11.70;95.20;;;;;;5497730;26;20262;-48
2024/04/10 03:15:01;;;;;;;;;;;11.70;95.20;;;;;;5502282;26;19927;-48
2024/04/10 03:17:26;;;;;;;;;;;11.70;95.00;;;;;;5496410;26;20290;-48
2024/04/10 03:19:53;;;;;;;;;;;11.70;95.00;;;;;;5518512;26;20575;-55
2024/04/10 03:22:18;;;;;;;;;;;11.70;94.90;;;;;;5507973;25;20346;-51
2024/04/10 03:24:44;;;;;;;;;;;11.60;94.90;;;;;;5509556;26;19935;-48
2024/04/10 03:27:09;;;;;;;;;;;11.60;94.90;;;;;;5506084;25;19928;-48
2024/04/10 03:29:35;;;;;;;;;;;11.60;94.90;;;;;;5505506;26;19996;-49
2024/04/10 03:32:01;;;;;;;;;;;11.60;94.90;;;;;;5507262;26;19995;-48
2024/04/10 03:34:27;;;;;;;;;;;11.60;94.90;;;;;;5507123;25;19997;-48
2024/04/10 03:36:53;;;;;;;;;;;11.60;94.80;;;;;;5509164;26;19936;-48
2024/04/10 03:39:19;;;;;;;;;;;11.50;94.80;;;;;;5502958;26;19985;-48
2024/04/10 03:41:45;;;;;;;;;;;11.60;94.90;;;;;;5509301;25;19977;-50
2024/04/10 03:44:10;;;;;;;;;;;11.50;94.80;;;;;;5507363;25;19928;-48
2024/04/10 03:46:36;;;;;;;;;;;11.50;94.70;;;;;;5505856;26;19932;-48
2024/04/10 03:49:01;;;;;;;;;;;11.50;94.70;;;;;;5508127;26;19927;-48
2024/04/10 03:51:27;;;;;;;;;;;11.50;94.60;;;;;;5522805;26;19932;-48
2024/04/10 03:53:52;;;;;;;;;;;11.50;94.70;;;;;;5525932;26;19934;-48
2024/04/10 03:56:18;;;;;;;;;;;11.50;94.60;;;;;;5525973;26;19935;-48
2024/04/10 03:58:47;;;;;;;;;;;11.40;94.80;;;;;;5525963;26;20600;-48
2024/04/10 04:01:13;;;;;;;;;;;11.40;94.70;;;;;;5482492;26;20033;-48
2024/04/10 04:03:38;;;;;;;;;;;11.40;94.70;;;;;;5490359;26;19943;-49
2024/04/10 04:06:04;;;;;;;;;;;11.40;94.70;;;;;;5493453;26;20198;-48
2024/04/10 04:08:31;;;;;;;;;;;11.40;94.60;;;;;;5484818;26;19928;-48
2024/04/10 04:10:57;;;;;;;;;;;11.40;94.60;;;;;;5484559;26;19928;-49
2024/04/10 04:13:22;;;;;;;;;;;11.40;94.60;;;;;;5478561;26;20266;-52
2024/04/10 04:15:48;;;;;;;;;;;11.40;94.60;;;;;;5479581;26;19928;-49
2024/04/10 04:18:14;;;;;;;;;;;11.40;94.70;;;;;;5472590;26;20259;-51
2024/04/10 04:20:40;;;;;;;;;;;11.40;94.60;;;;;;5485598;26;19927;-51
2024/04/10 04:23:05;;;;;;;;;;;11.40;94.70;;;;;;5484422;26;19929;-51
2024/04/10 04:25:33;;;;;;;;;;;11.40;94.70;;;;;;5491191;26;19932;-51
2024/04/10 04:27:58;;;;;;;;;;;11.30;94.60;;;;;;5479816;26;19929;-52
2024/04/10 04:30:24;;;;;;;;;;;11.30;94.60;;;;;;5482721;26;19928;-50
2024/04/10 04:32:49;;;;;;;;;;;11.30;94.60;;;;;;5486196;26;19935;-53
2024/04/10 04:35:15;;;;;;;;;;;11.30;94.60;;;;;;5477024;26;19934;-50
2024/04/10 04:37:41;;;;;;;;;;;11.30;94.60;;;;;;5478417;26;19928;-52
2024/04/10 04:40:09;;;;;;;;;;;11.30;94.60;;;;;;5494337;26;19936;-51
2024/04/10 04:42:34;;;;;;;;;;;11.30;94.60;;;;;;5491910;26;20377;-52
2024/04/10 04:45:00;;;;;;;;;;;11.30;94.60;;;;;;5491528;26;19928;-49
2024/04/10 04:47:28;;;;;;;;;;;11.30;94.60;;;;;;5491520;26;20013;-50
2024/04/10 04:49:53;;;;;;;;;;;11.20;94.50;;;;;;5491240;26;19935;-49
2024/04/10 04:52:19;;;;;;;;;;;11.20;94.50;;;;;;5504848;26;19934;-50
2024/04/10 04:54:44;;;;;;;;;;;11.20;94.50;;;;;;5490494;26;19928;-49
2024/04/10 04:57:12;;;;;;;;;;;11.20;94.40;;;;;;5482241;26;19928;-50
2024/04/10 04:59:38;;;;;;;;;;;11.30;94.50;;;;;;5484502;26;19995;-48
2024/04/10 05:02:03;;;;;;;;;;;11.30;94.50;;;;;;5484580;26;19928;-48
2024/04/10 05:07:13;;;;;;;;;;;11.30;94.40;;;;;;5472304;26;19936;-49
2024/04/10 05:09:39;;;;;;;;;;;11.20;94.30;;;;;;5477192;26;19928;-49
2024/04/10 05:12:04;;;;;;;;;;;11.20;94.30;;;;;;5501215;26;19927;-48
2024/04/10 05:14:30;;;;;;;;;;;11.20;94.20;;;;;;5473565;26;19928;-48
2024/04/10 05:16:55;;;;;;;;;;;11.20;94.20;;;;;;5492742;25;20596;-49
2024/04/10 05:19:21;;;;;;;;;;;11.20;94.30;;;;;;5483309;26;19928;-51
2024/04/10 05:21:46;;;;;;;;;;;11.20;94.30;;;;;;5471368;26;19935;-47
2024/04/10 05:24:12;;;;;;;;;;;11.20;94.50;;;;;;5480863;26;19928;-48
2024/04/10 05:26:38;;;;;;;;;;;11.10;94.40;;;;;;5476585;26;19928;-49
2024/04/10 05:29:03;;;;;;;;;;;11.20;94.40;;;;;;5480395;26;19928;-49
2024/04/10 05:31:29;;;;;;;;;;;11.10;94.40;;;;;;5474562;26;19928;-48
2024/04/10 05:33:54;;;;;;;;;;;11.10;94.40;;;;;;5485755;26;19928;-47
2024/04/10 05:36:20;;;;;;;;;;;11.10;94.50;;;;;;5482853;26;19936;-50
2024/04/10 05:38:45;;;;;;;;;;;11.10;94.90;;;;;;5469982;26;20457;-48
2024/04/10 05:41:11;;;;;;;;;;;11.10;94.50;;;;;;5470310;26;19929;-47
2024/04/10 05:43:36;;;;;;;;;;;11.10;94.50;;;;;;5478361;26;20374;-49
2024/04/10 05:46:02;;;;;;;;;;;11.10;94.50;;;;;;5481527;26;20371;-48
2024/04/10 05:48:28;;;;;;;;;;;11.10;94.60;;;;;;5470079;26;19935;-48
2024/04/10 05:51:00;;;;;;;;;;;11.10;94.70;;;;;;5470492;26;19935;-50
2024/04/10 05:53:26;;;;;;;;;;;11.10;94.80;;;;;;5483004;26;19928;-48
2024/04/10 05:55:52;;;;;;;;;;;11.10;94.90;;;;;;5502959;25;19928;-50
2024/04/10 05:58:18;;;;;;;;;;;11.10;95.10;;;;;;5493575;26;19935;-48
2024/04/10 06:00:43;;;;;;;;;;;11.20;95.20;;;;;;5488226;26;19948;-48
2024/04/10 06:03:09;;;;;;;;;;;11.20;95.30;;;;;;5481489;26;19934;-48
2024/04/10 06:05:35;;;;;;;;;;;11.20;95.30;;;;;;5479555;26;20363;-49
2024/04/10 06:08:00;;;;;;;;;;;11.20;95.40;;;;;;5500856;26;20239;-48
2024/04/10 06:10:26;;;;;;;;;;;11.20;95.40;;;;;;5510032;25;20003;-47
2024/04/10 06:12:52;;;;;;;;;;;11.20;95.50;;;;;;5493907;25;19933;-48
2024/04/10 06:15:17;;;;;;;;;;;11.20;95.60;;;;;;5493861;26;19943;-52
2024/04/10 06:17:43;;;;;;;;;;;11.30;95.80;;;;;;5477588;26;19936;-51
2024/04/10 06:20:11;;;;;;;;;;;11.30;95.90;;;;;;5481491;26;19935;-48
2024/04/10 06:22:39;;;;;;;;;;;11.40;96.00;;;;;;5478504;26;19956;-48
2024/04/10 06:25:05;;;;;;;;;;;11.40;96.20;;;;;;5479441;26;19945;-48
2024/04/10 06:27:30;;;;;;;;;;;11.40;96.40;;;;;;5482246;26;20507;-49
2024/04/10 06:29:56;;;;;;;;;;;11.40;96.60;;;;;;5484597;26;19935;-47
2024/04/10 06:32:21;;;;;;;;;;;11.50;96.80;;;;;;5479465;26;20349;-47
2024/04/10 06:34:47;;;;;;;;;;;11.50;96.90;;;;;;5482874;26;20435;-47
2024/04/10 06:37:15;;;;;;;;;;;11.60;97.10;;;;;;5476798;26;20001;-47
2024/04/10 06:39:40;;;;;;;;;;;11.60;97.60;;;;;;5474616;26;19942;-49
2024/04/10 06:42:06;;;;;;;;;;;11.60;97.70;;;;;;5475831;26;19981;-48
2024/04/10 06:44:32;;;;;;;;;;;11.60;97.60;;;;;;5478882;26;19928;-48
2024/04/10 06:46:57;;;;;;;;;;;11.60;97.60;;;;;;5476032;26;20010;-47
2024/04/10 06:49:23;;;;;;;;;;;11.60;97.70;;;;;;5479344;26;19928;-47
2024/04/10 06:51:48;;;;;;;;;;;11.70;97.80;;;;;;5480917;26;19927;-47
2024/04/10 06:54:14;;;;;;;;;;;11.70;97.80;;;;;;5477035;26;19932;-47
2024/04/10 06:56:40;;;;;;;;;;;11.70;97.90;;;;;;5475857;26;19944;-47
2024/04/10 06:59:06;;;;;;;;;;;11.70;97.90;;;;;;5481298;26;19928;-48
2024/04/10 07:01:31;;;;;;;;;;;11.80;98.00;;;;;;5479570;26;19934;-47
2024/04/10 07:03:57;;;;;;;;;;;11.80;98.10;;;;;;5486382;26;19928;-50
2024/04/10 07:06:22;;;;;;;;;;;11.80;98.10;;;;;;5489835;26;19928;-47
2024/04/10 07:08:49;;;;;;;;;;;11.80;98.30;;;;;;5483204;26;19936;-48
2024/04/10 07:11:21;;;;;;;;;;;11.80;98.30;;;;;;5475950;26;20450;-48
2024/04/10 07:13:48;;;;;;;;;;;11.90;98.40;;;;;;5480645;26;19936;-47
2024/04/10 07:16:13;;;;;;;;;;;11.90;98.50;;;;;;5477916;26;19969;-48
2024/04/10 07:18:39;;;;;;;;;;;11.90;98.50;;;;;;5483599;26;20143;-47
2024/04/10 07:21:06;;;;;;;;;;;11.90;98.70;;;;;;5470973;26;19929;-48
2024/04/10 07:23:32;;;;;;;;;;;12.00;98.70;;;;;;5469102;26;20439;-48
2024/04/10 07:26:09;;;;;;;;;;;12.00;98.90;;;;;;5473744;26;19936;-47
2024/04/10 07:28:35;;;;;;;;;;;12.00;98.90;;;;;;5483904;26;19935;-48
2024/04/10 07:31:00;;;;;;;;;;;12.00;98.90;;;;;;5480268;26;19929;-49
2024/04/10 07:33:26;;;;;;;;;;;12.10;99.10;;;;;;5482837;26;19928;-47
2024/04/10 07:35:52;;;;;;;;;;;12.10;99.30;;;;;;5490553;26;19935;-47
2024/04/10 07:38:17;;;;;;;;;;;12.10;99.40;;;;;;5482250;26;19946;-47
2024/04/10 07:40:52;;;;;;;;;;;12.10;99.50;;;;;;5478249;26;20263;-47
2024/04/10 07:43:18;;;;;;;;;;;12.10;99.50;;;;;;5479092;26;19932;-47
2024/04/10 07:45:44;;;;;;;;;;;12.20;99.60;;;;;;5472636;26;19943;-48
2024/04/10 07:48:09;;;;;;;;;;;12.20;99.70;;;;;;5470680;26;20439;-50
2024/04/10 07:50:35;;;;;;;;;;;12.30;99.90;;;;;;5461003;26;19974;-51
2024/04/10 07:53:00;;;;;;;;;;;12.30;99.80;;;;;;5490953;26;19928;-51
2024/04/10 07:55:26;;;;;;;;;;;12.30;99.90;;;;;;5490945;26;19935;-49
2024/04/10 07:57:52;;;;;;;;;;;12.40;99.90;;;;;;5486437;26;19940;-50
2024/04/10 08:00:18;;;;;;;;;;;12.40;99.90;;;;;;5476653;26;19935;-48
2024/04/10 08:02:43;;;;;;;;;;;12.40;99.90;;;;;;5477728;26;19935;-48
2024/04/10 08:05:10;;;;;;;;;;;12.40;99.90;;;;;;5478432;26;20003;-50
2024/04/10 08:07:36;;;;;;;;;;;12.40;99.90;;;;;;5478569;26;19973;-50
2024/04/10 08:10:03;;;;;;;;;;;12.40;99.90;;;;;;5471050;26;19928;-50
2024/04/10 08:12:29;;;;;;;;;;;12.50;99.90;;;;;;5481545;26;19928;-51
2024/04/10 08:14:55;;;;;;;;;;;12.50;99.90;;;;;;5492132;26;19928;-49
2024/04/10 08:17:20;;;;;;;;;;;12.50;99.90;;;;;;5482579;26;20289;-49
2024/04/10 08:19:46;;;;;;;;;;;12.60;99.90;;;;;;5475262;26;20388;-50
2024/04/10 08:22:13;;;;;;;;;;;12.60;99.90;;;;;;5481237;26;19928;-49
2024/04/10 08:24:38;;;;;;;;;;;12.60;99.90;;;;;;5470044;26;19956;-50
2024/04/10 08:27:04;;;;;;;;;;;12.70;99.90;;;;;;5480399;26;19928;-48
2024/04/10 08:29:29;;;;;;;;;;;12.60;99.90;;;;;;5472523;26;20388;-47
2024/04/10 08:31:56;;;;;;;;;;;12.70;99.90;;;;;;5480279;26;19928;-50
2024/04/10 08:34:22;;;;;;;;;;;12.70;99.90;;;;;;5474784;26;19935;-50
2024/04/10 08:36:48;;;;;;;;;;;12.70;99.90;;;;;;5476990;26;19960;-49
2024/04/10 08:39:13;;;;;;;;;;;12.80;99.90;;;;;;5473734;26;19932;-49
2024/04/10 08:41:39;;;;;;;;;;;12.80;99.90;;;;;;5474921;26;19935;-48
2024/04/10 08:44:06;;;;;;;;;;;12.90;99.90;;;;;;5475543;26;19935;-51
2024/04/10 08:46:34;;;;;;;;;;;12.90;99.90;;;;;;5475234;26;20371;-51
2024/04/10 08:49:01;;;;;;;;;;;12.90;99.90;;;;;;5475375;26;20004;-51
2024/04/10 08:51:27;;;;;;;;;;;12.90;99.90;;;;;;5475378;26;19935;-49
2024/04/10 08:53:54;;;;;;;;;;;12.90;99.90;;;;;;5482873;26;19936;-48
2024/04/10 08:56:20;;;;;;;;;;;12.90;99.90;;;;;;5486956;26;20637;-48
2024/04/10 08:58:45;;;;;;;;;;;12.90;99.90;;;;;;5479058;26;19936;-47
2024/04/10 09:01:27;;;;;;;;;;;12.90;99.90;;;;;;5482680;26;19928;-48
2024/04/10 09:03:53;;;;;;;;;;;12.90;99.90;;;;;;5474080;26;19935;-48
2024/04/10 09:06:22;;;;;;;;;;;13.00;99.90;;;;;;5488995;26;19940;-48
2024/04/10 09:08:56;;;;;;;;;;;13.00;99.90;;;;;;5489664;26;19928;-48
2024/04/10 09:11:22;;;;;;;;;;;13.00;99.90;;;;;;5489544;26;19928;-48
2024/04/10 09:13:47;;;;;;;;;;;13.00;99.90;;;;;;5487827;26;19928;-47
2024/04/10 09:16:20;;;;;;;;;;;13.00;99.90;;;;;;5489880;26;19996;-49
2024/04/10 09:18:47;;;;;;;;;;;13.00;99.80;;;;;;5489796;26;20387;-48
2024/04/10 09:21:14;;;;;;;;;;;13.00;99.90;;;;;;5489778;26;19960;-48
2024/04/10 09:23:40;;;;;;;;;;;13.10;99.90;;;;;;5489027;26;19928;-48
2024/04/10 09:26:06;;;;;;;;;;;13.00;99.90;;;;;;5490329;26;19942;-48
2024/04/10 09:28:35;;;;;;;;;;;13.00;99.90;;;;;;5489783;26;19960;-48
2024/04/10 09:31:00;;;;;;;;;;;13.10;99.90;;;;;;5489263;26;20271;-48
2024/04/10 09:33:26;;;;;;;;;;;13.10;99.90;;;;;;5486240;26;20308;-49
2024/04/10 09:35:55;;;;;;;;;;;13.10;99.90;;;;;;5489688;26;19928;-48
2024/04/10 09:38:22;;;;;;;;;;;13.10;99.90;;;;;;5486631;26;20267;-48
2024/04/10 09:40:53;;;;;;;;;;;13.10;99.90;;;;;;5489230;26;19935;-49
2024/04/10 09:43:21;;;;;;;;;;;13.10;99.90;;;;;;5484048;26;19935;-48
2024/04/10 09:45:47;;;;;;;;;;;13.10;99.70;;;;;;5489186;26;19936;-49
2024/04/10 09:48:13;;;;;;;;;;;13.10;99.70;;;;;;5488923;26;19932;-48
2024/04/10 09:50:42;;;;;;;;;;;13.10;99.90;;;;;;5490868;26;19935;-48
2024/04/10 09:53:08;;;;;;;;;;;13.20;99.90;;;;;;5492899;26;20268;-48
2024/04/10 09:55:34;;;;;;;;;;;13.20;99.90;;;;;;5492614;26;20339;-49
2024/04/10 09:58:01;;;;;;;;;;;13.20;99.80;;;;;;5488048;26;20408;-52
2024/04/10 10:00:26;;;;;;;;;;;13.20;99.90;;;;;;5491247;26;20060;-50
2024/04/10 10:03:02;;;;;;;;;;;13.20;99.70;;;;;;5489828;26;19936;-48
2024/04/10 10:05:27;;;;;;;;;;;13.20;99.70;;;;;;5492088;26;19997;-48
2024/04/10 10:08:02;;;;;;;;;;;13.30;99.90;;;;;;5492901;26;19959;-52
2024/04/10 10:10:27;;;;;;;;;;;13.30;99.90;;;;;;5491193;26;19955;-50
2024/04/10 10:12:53;;;;;;;;;;;13.30;99.90;;;;;;5484866;26;19928;-49
2024/04/10 10:15:20;;;;;;;;;;;13.30;99.90;;;;;;5492501;26;19944;-51
2024/04/10 10:17:51;;;;;;;;;;;13.30;99.80;;;;;;5491636;26;19935;-51
2024/04/10 10:20:20;;;;;;;;;;;13.30;99.90;;;;;;5488843;26;19939;-50
2024/04/10 10:23:02;;;;;;;;;;;13.30;99.90;;;;;;5492519;26;19928;-50
2024/04/10 10:25:27;;;;;;;;;;;13.30;99.90;;;;;;5490915;26;19928;-51
2024/04/10 10:28:04;;;;;;;;;;;13.40;99.90;;;;;;5477054;26;19936;-50
2024/04/10 10:30:29;;;;;;;;;;;13.40;99.90;;;;;;5466865;26;19928;-48
2024/04/10 10:33:04;;;;;;;;;;;13.40;99.90;;;;;;5488985;26;19960;-50
2024/04/10 10:35:30;;;;;;;;;;;13.40;99.90;;;;;;5481810;26;19934;-51
2024/04/10 10:37:56;;;;;;;;;;;13.40;99.80;;;;;;5475012;26;19928;-49
2024/04/10 10:40:23;;;;;;;;;;;13.40;99.90;;;;;;5476940;26;19928;-51
2024/04/10 10:42:57;;;;;;;;;;;13.40;99.80;;;;;;5480898;26;19927;-53
2024/04/10 10:45:23;;;;;;;;;;;13.40;99.90;;;;;;5488476;26;19936;-48
2024/04/10 10:47:49;;;;;;;;;;;13.40;99.70;;;;;;5467441;26;19934;-48
2024/04/10 10:50:17;;;;;;;;;;;13.50;99.90;;;;;;5492226;26;19928;-48
2024/04/10 10:52:42;;;;;;;;;;;13.50;99.80;;;;;;5489918;26;19928;-50
2024/04/10 10:55:14;;;;;;;;;;;13.50;99.50;;;;;;5491914;26;20026;-53
2024/04/10 10:57:40;;;;;;;;;;;13.50;99.60;;;;;;5489288;26;19936;-49
2024/04/10 11:00:11;;;;;;;;;;;13.50;99.60;;;;;;5491246;26;20422;-52
2024/04/10 11:02:37;;;;;;;;;;;13.50;99.80;;;;;;5489122;26;19959;-49
2024/04/10 11:05:06;;;;;;;;;;;13.50;99.70;;;;;;5492789;26;19935;-52
2024/04/10 11:07:32;;;;;;;;;;;13.50;99.60;;;;;;5492329;26;19997;-49
2024/04/10 11:10:04;;;;;;;;;;;13.50;99.70;;;;;;5489232;26;19951;-51
2024/04/10 11:12:30;;;;;;;;;;;13.60;99.80;;;;;;5488219;26;20041;-48
2024/04/10 11:15:05;;;;;;;;;;;13.60;99.80;;;;;;5487617;26;19940;-49
2024/04/10 11:17:30;;;;;;;;;;;13.60;99.80;;;;;;5477928;26;19935;-49
2024/04/10 11:19:56;;;;;;;;;;;13.60;99.80;;;;;;5489957;26;19928;-48
2024/04/10 11:22:21;;;;;;;;;;;13.60;99.70;;;;;;5487876;26;19936;-48
2024/04/10 11:24:47;;;;;;;;;;;13.60;99.60;;;;;;5490331;26;19928;-48
2024/04/10 11:27:12;;;;;;;;;;;13.60;99.90;;;;;;5490398;26;20325;-48
2024/04/10 11:29:38;;;;;;;;;;;13.60;99.80;;;;;;5485754;26;20439;-48
2024/04/10 11:32:04;;;;;;;;;;;13.60;99.80;;;;;;5459993;26;19932;-48
2024/04/10 11:34:30;;;;;;;;;;;13.60;99.90;;;;;;5489620;26;19939;-47
2024/04/10 11:36:56;;;;;;;;;;;13.70;99.90;;;;;;5483660;26;20392;-49
2024/04/10 11:39:21;;;;;;;;;;;13.70;99.90;;;;;;5488306;26;19936;-47
2024/04/10 11:41:47;;;;;;;;;;;13.70;99.90;;;;;;5488132;26;19935;-47
2024/04/10 11:44:12;;;;;;;;;;;13.70;99.90;;;;;;5490113;26;19939;-48
2024/04/10 11:46:38;;;;;;;;;;;13.70;99.90;;;;;;5488225;26;19936;-48
2024/04/10 11:49:05;;;;;;;;;;;13.70;99.90;;;;;;5489960;26;19935;-47
2024/04/10 11:51:31;;;;;;;;;;;13.70;99.90;;;;;;5486998;26;19928;-47
2024/04/10 11:53:57;;;;;;;;;;;13.70;99.90;;;;;;5479463;26;20375;-47
2024/04/10 11:56:24;;;;;;;;;;;13.70;99.90;;;;;;5467018;26;20503;-48
2024/04/10 11:58:50;;;;;;;;;;;13.70;99.90;;;;;;5483860;26;19928;-48
2024/04/10 12:01:15;;;;;;;;;;;13.80;99.90;;;;;;5475799;26;20382;-48
2024/04/10 12:03:42;;;;;;;;;;;13.80;99.90;;;;;;5461686;26;19928;-47
2024/04/10 12:06:08;;;;;;;;;;;13.80;99.60;;;;;;5469421;26;19928;-48
2024/04/10 12:08:33;;;;;;;;;;;13.70;99.40;;;;;;5483484;26;20278;-48
2024/04/10 12:11:00;;;;;;;;;;;13.80;99.20;;;;;;5483832;26;19935;-48
2024/04/10 12:13:27;;;;;;;;;;;13.70;98.80;;;;;;5477350;26;20274;-48
2024/04/10 12:15:53;;;;;;;;;;;13.80;98.30;;;;;;5484726;26;19972;-49
2024/04/10 12:18:19;;;;;;;;;;;13.80;98.00;;;;;;5487559;26;19928;-48
2024/04/10 12:20:45;;;;;;;;;;;13.80;97.90;;;;;;5481990;26;19936;-48
2024/04/10 12:23:11;;;;;;;;;;;13.80;97.90;;;;;;5485892;26;20322;-48
2024/04/10 12:25:36;;;;;;;;;;;13.80;97.90;;;;;;5479586;26;19928;-48
2024/04/10 12:28:03;;;;;;;;;;;13.80;98.00;;;;;;5474488;26;19936;-48
2024/04/10 12:30:29;;;;;;;;;;;13.80;97.90;;;;;;5467725;26;19928;-51
2024/04/10 12:32:54;;;;;;;;;;;13.80;97.80;;;;;;5483584;26;20485;-51
2024/04/10 12:38:07;;;;;;;;;;;13.90;97.80;;;;;;5481019;26;19996;-51
2024/04/10 12:40:36;;;;;;;;;;;13.80;97.70;;;;;;5487067;26;19928;-52
2024/04/10 12:43:03;;;;;;;;;;;13.80;97.70;;;;;;5488379;26;19928;-51
2024/04/10 12:45:28;;;;;;;;;;;13.80;97.70;;;;;;5486917;26;19936;-51
2024/04/10 12:47:54;;;;;;;;;;;13.80;97.70;;;;;;5488287;26;19935;-52
2024/04/10 12:50:19;;;;;;;;;;;13.90;97.60;;;;;;5488058;26;20397;-49
2024/04/10 12:52:45;;;;;;;;;;;13.90;97.60;;;;;;5488995;26;19928;-51
2024/04/10 12:55:11;;;;;;;;;;;13.90;97.70;;;;;;5486382;26;19946;-49
2024/04/10 12:57:36;;;;;;;;;;;13.90;97.80;;;;;;5487498;26;19928;-52
2024/04/10 13:00:03;;;;;;;;;;;13.90;97.90;;;;;;5487705;26;19940;-51
2024/04/10 13:02:29;;;;;;;;;;;13.90;98.10;;;;;;5461545;26;19951;-50
2024/04/10 13:04:55;;;;;;;;;;;13.90;98.10;;;;;;5485211;26;20001;-51
2024/04/10 13:07:20;;;;;;;;;;;13.90;98.10;;;;;;5488148;26;19956;-49
2024/04/10 13:09:49;;;;;;;;;;;13.90;98.20;;;;;;5481303;26;19978;-51
2024/04/10 13:12:16;;;;;;;;;;;14.00;98.30;;;;;;5459657;26;19972;-49
2024/04/10 13:14:42;;;;;;;;;;;14.00;98.50;;;;;;5483707;26;19936;-50
2024/04/10 13:17:07;;;;;;;;;;;13.90;98.60;;;;;;5459081;26;19936;-51
2024/04/10 13:19:34;;;;;;;;;;;13.90;98.60;;;;;;5466824;26;19934;-49
2024/04/10 13:22:03;;;;;;;;;;;14.00;98.50;;;;;;5485199;26;19928;-51
2024/04/10 13:24:29;;;;;;;;;;;14.00;98.40;;;;;;5486378;26;19932;-51
2024/04/10 13:26:54;;;;;;;;;;;13.90;98.60;;;;;;5488194;26;19928;-53
2024/04/10 13:29:20;;;;;;;;;;;14.00;98.60;;;;;;5487671;26;19935;-50
2024/04/10 13:31:45;;;;;;;;;;;14.00;98.60;;;;;;5487664;26;20379;-49
2024/04/10 13:34:11;;;;;;;;;;;14.00;98.60;;;;;;5488414;26;20364;-50
2024/04/10 13:36:37;;;;;;;;;;;14.00;98.50;;;;;;5487539;26;19956;-51
2024/04/10 13:39:03;;;;;;;;;;;14.00;98.70;;;;;;5487990;26;19939;-50
2024/04/10 13:41:29;;;;;;;;;;;14.00;98.80;;;;;;5487626;26;20005;-51
2024/04/10 13:43:54;;;;;;;;;;;14.00;98.90;;;;;;5487197;26;19940;-50
2024/04/10 13:46:21;;;;;;;;;;;14.10;99.10;;;;;;5484688;26;20212;-47
2024/04/10 13:48:47;;;;;;;;;;;14.00;99.10;;;;;;5487501;26;20823;-49
2024/04/10 13:51:20;;;;;;;;;;;14.00;99.10;;;;;;5488189;26;19932;-51
2024/04/10 13:53:45;;;;;;;;;;;14.10;99.00;;;;;;5483061;26;20000;-49
2024/04/10 13:56:11;;;;;;;;;;;14.10;99.10;;;;;;5487764;26;19928;-48
2024/04/10 13:58:40;;;;;;;;;;;14.10;99.10;;;;;;5487116;26;19928;-49
2024/04/10 14:01:14;;;;;;;;;;;14.10;99.10;;;;;;5482982;26;19975;-49
2024/04/10 14:03:43;;;;;;;;;;;14.10;99.30;;;;;;5486365;26;20286;-49
2024/04/10 14:06:09;;;;;;;;;;;14.10;99.40;;;;;;5487550;26;19943;-51
2024/04/10 14:08:35;;;;;;;;;;;14.10;99.30;;;;;;5487088;26;19935;-52
2024/04/10 14:11:01;;;;;;;;;;;14.10;99.20;;;;;;5485765;26;19960;-49
2024/04/10 14:13:26;;;;;;;;;;;14.10;99.20;;;;;;5485554;26;20416;-49
2024/04/10 14:15:56;;;;;;;;;;;14.10;99.20;;;;;;5481763;26;19960;-49
2024/04/10 14:18:25;;;;;;;;;;;14.10;99.20;;;;;;5453880;26;19928;-51
2024/04/10 14:20:57;;;;;;;;;;;14.10;99.40;;;;;;5486509;26;19928;-50
2024/04/10 14:23:23;;;;;;;;;;;14.10;99.50;;;;;;5486367;26;20493;-48
2024/04/10 14:25:52;;;;;;;;;;;14.10;99.50;;;;;;5488015;26;20267;-49
2024/04/10 14:28:18;;;;;;;;;;;14.10;99.40;;;;;;5487111;26;19998;-51
2024/04/10 14:31:04;;;;;;;;;;;14.10;99.40;;;;;;5483654;26;19940;-53